As Suwayq — V7XU8 — position and weather

sailwx.info

Track history (hours):
 
Tides and Currents Weather Stations Pressure Air Temp Water Temp Dewpoint Dewpoint Depression Visibility Wind Speed Wind Dir Waves Ship Positions

As Suwayq

Last reported at 2014-Jul-29 08:03 UTC. Time now 2014-Jul-29 10:45 UTC.
Position N 23°22' E 117°33'.

Length 333 m; draft 11.5 m.

Type: Tanker. MMSI: 538004576.

Date/timePositionNaut miles runAvg speedWind from/ knotsBaromVisibWave heightAir tempDewpointWater temp
2014-Jul-29 08:03N 23°22' E 117°33'713.8
2014-Jul-29 07:32N 23°25' E 117°40'1515.0
2014-Jul-29 06:33N 23°33' E 117°53'1515.0
2014-Jul-29 05:33N 23°42' E 118°06'1515.0
2014-Jul-29 04:33N 23°53' E 118°17'1514.4
2014-Jul-29 03:33N 24°03' E 118°29'1413.8
2014-Jul-29 02:32N 24°12' E 118°40'1413.9
2014-Jul-29 01:33N 24°21' E 118°52'1313.2
2014-Jul-29 00:33N 24°29' E 119°04'1110.8
2014-Jul-28 23:33N 24°36' E 119°12'3710.9
2014-Jul-28 20:10N 25°01' E 119°42'1011.3
2014-Jul-28 19:17N 25°08' E 119°50'26912.2
2014-Jul-27 21:18N 28°52' E 122°37'911.2
2014-Jul-27 20:30N 29°00' E 122°42'3711.2
2014-Jul-27 17:10N 29°32' E 123°04'1911.5
2014-Jul-27 15:30N 29°48' E 123°16'1010.9
2014-Jul-27 14:33N 29°58' E 123°18'6011.7
2014-Jul-27 09:27N 30°50' E 123°53'1613.5
2014-Jul-27 08:17N 31°05' E 123°54'31312.6
2014-Jul-26 07:29N 36°18' E 123°33'1513.3
2014-Jul-26 06:21N 36°33' E 123°32'1013.0
2014-Jul-26 05:32N 36°43' E 123°27'1513.9
2014-Jul-26 04:29N 36°56' E 123°20'1414.5
2014-Jul-26 03:30N 37°08' E 123°10'1415.1
2014-Jul-26 02:33N 37°20' E 123°01'1515.2
2014-Jul-26 01:32N 37°34' E 122°53'1313.2
2014-Jul-26 00:32N 37°43' E 122°40'1212.0
2014-Jul-25 23:33N 37°49' E 122°27'1211.9
2014-Jul-25 22:33N 37°55' E 122°14'1212.3
2014-Jul-25 21:33N 38°02' E 122°01'3112.9
2014-Jul-25 19:11N 38°17' E 121°28'1112.7
2014-Jul-25 18:21N 38°23' E 121°16'1112.5
2014-Jul-25 17:28N 38°29' E 121°04'14111.9
2014-Jul-25 05:33N 38°54' E 118°06'7 7.2
2014-Jul-25 04:33N 38°57' E 117°57'4 3.1
2014-Jul-25 03:16N 38°57' E 117°52'0 0.0
2014-Jul-25 02:28N 38°57' E 117°52'0 0.0
2014-Jul-25 00:10N 38°57' E 117°52'0 0.0
2014-Jul-24 23:10N 38°57' E 117°52'0 0.0
2014-Jul-24 22:28N 38°57' E 117°52'0 0.0
2014-Jul-24 21:22N 38°57' E 117°52'0 0.0
2014-Jul-24 20:10N 38°57' E 117°52'0 0.0
2014-Jul-24 19:28N 38°57' E 117°52'0 0.0
2014-Jul-24 18:28N 38°57' E 117°52'0 0.0
2014-Jul-24 12:16N 38°57' E 117°52'0 0.0
2014-Jul-24 06:09N 38°57' E 117°52'0 0.0
2014-Jul-24 05:27N 38°57' E 117°52'0 0.0
2014-Jul-24 03:33N 38°57' E 117°52'0 0.0
2014-Jul-24 02:33N 38°57' E 117°52'0 0.0
2014-Jul-24 01:33N 38°57' E 117°52'0 0.0
2014-Jul-24 00:33N 38°57' E 117°52'0 0.0
2014-Jul-23 23:33N 38°57' E 117°52'0 0.0
2014-Jul-23 22:33N 38°57' E 117°52'0 0.0
2014-Jul-23 21:33N 38°57' E 117°52'0 0.0
2014-Jul-23 13:33N 38°57' E 117°52'0 0.0
2014-Jul-23 09:33N 38°57' E 117°52'0 0.0
2014-Jul-23 08:33N 38°57' E 117°52'0 0.0
2014-Jul-23 07:21N 38°57' E 117°52'0 0.0
2014-Jul-23 06:33N 38°57' E 117°52'0 0.0
2014-Jul-23 05:33N 38°57' E 117°52'0 0.0
2014-Jul-23 04:33N 38°57' E 117°52'0 0.0
2014-Jul-23 03:33N 38°57' E 117°52'2 2.1
2014-Jul-23 02:33N 38°57' E 117°55'9 8.8
2014-Jul-23 01:33N 38°55' E 118°06'6 6.3
2014-Jul-23 00:34N 38°52' E 118°13'2 1.9
2014-Jul-22 23:33N 38°50' E 118°13'2 2.2
2014-Jul-22 22:33N 38°51' E 118°15'8 7.5
2014-Jul-22 21:31N 38°50' E 118°25'9411.3
2014-Jul-22 13:08N 38°45' E 120°26'712.8
2014-Jul-22 12:33N 38°42' E 120°35'1713.5
2014-Jul-22 11:20N 38°36' E 120°54'1013.1
2014-Jul-22 10:33N 38°31' E 121°06'1312.9
2014-Jul-22 09:34N 38°25' E 121°21'1313.0
2014-Jul-22 08:33N 38°19' E 121°35'1313.1
2014-Jul-22 07:34N 38°12' E 121°49'1413.6
2014-Jul-22 06:34N 38°04' E 122°03'1413.8
2014-Jul-22 05:33N 37°56' E 122°17'1414.1
2014-Jul-22 04:33N 37°47' E 122°32'1413.7
2014-Jul-22 03:32N 37°41' E 122°47'44611.7
2014-Jul-20 13:24N 30°16' E 123°22'1214.0
2014-Jul-20 12:33N 30°08' E 123°12'1413.7
2014-Jul-20 11:33N 29°58' E 123°02'1414.0
2014-Jul-20 10:33N 29°47' E 122°51'1413.6
2014-Jul-20 09:33N 29°40' E 122°38'1211.9
2014-Jul-20 08:33N 29°43' E 122°24'9 9.0
2014-Jul-20 07:33N 29°47' E 122°15'9 9.2
2014-Jul-20 06:33N 29°55' E 122°09'9 9.1
2014-Jul-20 05:33N 29°57' E 121°59'9 8.4
2014-Jul-20 04:32N 29°58' E 121°49'1 0.4
2014-Jul-20 03:11N 29°57' E 121°49'0 0.0
2014-Jul-20 02:29N 29°57' E 121°49'0 0.0
2014-Jul-20 01:23N 29°57' E 121°49'0 0.0
2014-Jul-20 00:29N 29°57' E 121°49'0 0.0
2014-Jul-19 23:29N 29°57' E 121°49'0 0.0
2014-Jul-19 22:29N 29°57' E 121°49'0 0.0
2014-Jul-19 21:11N 29°57' E 121°49'0 0.0
2014-Jul-19 20:17N 29°57' E 121°49'0 0.0
2014-Jul-19 19:29N 29°57' E 121°49'0 0.0
2014-Jul-19 18:29N 29°57' E 121°49'0 0.0
2014-Jul-19 17:29N 29°57' E 121°49'0 0.0
2014-Jul-19 16:29N 29°57' E 121°49'0 0.0
2014-Jul-19 15:23N 29°57' E 121°49'0 0.0
2014-Jul-19 14:10N 29°57' E 121°49'0 0.0
2014-Jul-19 13:28N 29°57' E 121°49'0 0.0
2014-Jul-19 12:22N 29°57' E 121°49'0 0.0
2014-Jul-19 11:25N 29°57' E 121°49'0 0.0
2014-Jul-19 10:31N 29°57' E 121°49'0 0.0
2014-Jul-19 09:31N 29°57' E 121°49'0 0.0
2014-Jul-19 08:31N 29°57' E 121°49'  
Track history (hours):
 
Tides and Currents Weather Stations Pressure Air Temp Water Temp Dewpoint Dewpoint Depression Visibility Wind Speed Wind Dir Waves Ship Positions

As Suwayq

Last reported at 2014-Jul-29 08:03 UTC. Time now 2014-Jul-29 10:45 UTC.
Position N 23°22' E 117°33'.

Length 333 m; draft 11.5 m.

Type: Tanker. MMSI: 538004576.

Date/timePositionNaut miles runAvg speedWind from/ knotsBaromVisibWave heightAir tempDewpointWater temp
2014-Jul-29 08:03N 23°22' E 117°33'713.8
2014-Jul-29 07:32N 23°25' E 117°40'1515.0
2014-Jul-29 06:33N 23°33' E 117°53'1515.0
2014-Jul-29 05:33N 23°42' E 118°06'1515.0
2014-Jul-29 04:33N 23°53' E 118°17'1514.4
2014-Jul-29 03:33N 24°03' E 118°29'1413.8
2014-Jul-29 02:32N 24°12' E 118°40'1413.9
2014-Jul-29 01:33N 24°21' E 118°52'1313.2
2014-Jul-29 00:33N 24°29' E 119°04'1110.8
2014-Jul-28 23:33N 24°36' E 119°12'3710.9
2014-Jul-28 20:10N 25°01' E 119°42'1011.3
2014-Jul-28 19:17N 25°08' E 119°50'26912.2
2014-Jul-27 21:18N 28°52' E 122°37'911.2
2014-Jul-27 20:30N 29°00' E 122°42'3711.2
2014-Jul-27 17:10N 29°32' E 123°04'1911.5
2014-Jul-27 15:30N 29°48' E 123°16'1010.9
2014-Jul-27 14:33N 29°58' E 123°18'6011.7
2014-Jul-27 09:27N 30°50' E 123°53'1613.5
2014-Jul-27 08:17N 31°05' E 123°54'31312.6
2014-Jul-26 07:29N 36°18' E 123°33'1513.3
2014-Jul-26 06:21N 36°33' E 123°32'1013.0
2014-Jul-26 05:32N 36°43' E 123°27'1513.9
2014-Jul-26 04:29N 36°56' E 123°20'1414.5
2014-Jul-26 03:30N 37°08' E 123°10'1415.1
2014-Jul-26 02:33N 37°20' E 123°01'1515.2
2014-Jul-26 01:32N 37°34' E 122°53'1313.2
2014-Jul-26 00:32N 37°43' E 122°40'1212.0
2014-Jul-25 23:33N 37°49' E 122°27'1211.9
2014-Jul-25 22:33N 37°55' E 122°14'1212.3
2014-Jul-25 21:33N 38°02' E 122°01'3112.9
2014-Jul-25 19:11N 38°17' E 121°28'1112.7
2014-Jul-25 18:21N 38°23' E 121°16'1112.5
2014-Jul-25 17:28N 38°29' E 121°04'14111.9
2014-Jul-25 05:33N 38°54' E 118°06'7 7.2
2014-Jul-25 04:33N 38°57' E 117°57'4 3.1
2014-Jul-25 03:16N 38°57' E 117°52'0 0.0
2014-Jul-25 02:28N 38°57' E 117°52'0 0.0
2014-Jul-25 00:10N 38°57' E 117°52'0 0.0
2014-Jul-24 23:10N 38°57' E 117°52'0 0.0
2014-Jul-24 22:28N 38°57' E 117°52'0 0.0
2014-Jul-24 21:22N 38°57' E 117°52'0 0.0
2014-Jul-24 20:10N 38°57' E 117°52'0 0.0
2014-Jul-24 19:28N 38°57' E 117°52'0 0.0
2014-Jul-24 18:28N 38°57' E 117°52'0 0.0
2014-Jul-24 12:16N 38°57' E 117°52'0 0.0
2014-Jul-24 06:09N 38°57' E 117°52'0 0.0
2014-Jul-24 05:27N 38°57' E 117°52'0 0.0
2014-Jul-24 03:33N 38°57' E 117°52'0 0.0
2014-Jul-24 02:33N 38°57' E 117°52'0 0.0
2014-Jul-24 01:33N 38°57' E 117°52'0 0.0
2014-Jul-24 00:33N 38°57' E 117°52'0 0.0
2014-Jul-23 23:33N 38°57' E 117°52'0 0.0
2014-Jul-23 22:33N 38°57' E 117°52'0 0.0
2014-Jul-23 21:33N 38°57' E 117°52'0 0.0
2014-Jul-23 13:33N 38°57' E 117°52'0 0.0
2014-Jul-23 09:33N 38°57' E 117°52'0 0.0
2014-Jul-23 08:33N 38°57' E 117°52'0 0.0
2014-Jul-23 07:21N 38°57' E 117°52'0 0.0
2014-Jul-23 06:33N 38°57' E 117°52'0 0.0
2014-Jul-23 05:33N 38°57' E 117°52'0 0.0
2014-Jul-23 04:33N 38°57' E 117°52'0 0.0
2014-Jul-23 03:33N 38°57' E 117°52'2 2.1
2014-Jul-23 02:33N 38°57' E 117°55'9 8.8
2014-Jul-23 01:33N 38°55' E 118°06'6 6.3
2014-Jul-23 00:34N 38°52' E 118°13'2 1.9
2014-Jul-22 23:33N 38°50' E 118°13'2 2.2
2014-Jul-22 22:33N 38°51' E 118°15'8 7.5
2014-Jul-22 21:31N 38°50' E 118°25'9411.3
2014-Jul-22 13:08N 38°45' E 120°26'712.8
2014-Jul-22 12:33N 38°42' E 120°35'1713.5
2014-Jul-22 11:20N 38°36' E 120°54'1013.1
2014-Jul-22 10:33N 38°31' E 121°06'1312.9
2014-Jul-22 09:34N 38°25' E 121°21'1313.0
2014-Jul-22 08:33N 38°19' E 121°35'1313.1
2014-Jul-22 07:34N 38°12' E 121°49'1413.6
2014-Jul-22 06:34N 38°04' E 122°03'1413.8
2014-Jul-22 05:33N 37°56' E 122°17'1414.1
2014-Jul-22 04:33N 37°47' E 122°32'1413.7
2014-Jul-22 03:32N 37°41' E 122°47'44611.7
2014-Jul-20 13:24N 30°16' E 123°22'1214.0
2014-Jul-20 12:33N 30°08' E 123°12'1413.7
2014-Jul-20 11:33N 29°58' E 123°02'1414.0
2014-Jul-20 10:33N 29°47' E 122°51'1413.6
2014-Jul-20 09:33N 29°40' E 122°38'1211.9
2014-Jul-20 08:33N 29°43' E 122°24'9 9.0
2014-Jul-20 07:33N 29°47' E 122°15'9 9.2
2014-Jul-20 06:33N 29°55' E 122°09'9 9.1
2014-Jul-20 05:33N 29°57' E 121°59'9 8.4
2014-Jul-20 04:32N 29°58' E 121°49'1 0.4
2014-Jul-20 03:11N 29°57' E 121°49'0 0.0
2014-Jul-20 02:29N 29°57' E 121°49'0 0.0
2014-Jul-20 01:23N 29°57' E 121°49'0 0.0
2014-Jul-20 00:29N 29°57' E 121°49'0 0.0
2014-Jul-19 23:29N 29°57' E 121°49'0 0.0
2014-Jul-19 22:29N 29°57' E 121°49'0 0.0
2014-Jul-19 21:11N 29°57' E 121°49'0 0.0
2014-Jul-19 20:17N 29°57' E 121°49'0 0.0
2014-Jul-19 19:29N 29°57' E 121°49'0 0.0
2014-Jul-19 18:29N 29°57' E 121°49'0 0.0
2014-Jul-19 17:29N 29°57' E 121°49'0 0.0
2014-Jul-19 16:29N 29°57' E 121°49'0 0.0
2014-Jul-19 15:23N 29°57' E 121°49'0 0.0
2014-Jul-19 14:10N 29°57' E 121°49'0 0.0
2014-Jul-19 13:28N 29°57' E 121°49'0 0.0
2014-Jul-19 12:22N 29°57' E 121°49'0 0.0
2014-Jul-19 11:25N 29°57' E 121°49'0 0.0
2014-Jul-19 10:31N 29°57' E 121°49'0 0.0
2014-Jul-19 09:31N 29°57' E 121°49'0 0.0
2014-Jul-19 08:31N 29°57' E 121°49'  

Dump ship's entire track history